Time;durP1;ratioP1;P1;durP2;ratioP2;P2;SDS_P1;SDS_P2;PMS_P1;PMS_P2;Temp;Humidity;BMP_temperature;BMP_pressure;BME280_temperature;BME280_humidity;BME280_pressure;Samples;Min_cycle;Max_cycle;Signal;HPM_P1;HPM_P2
2022/01/12 00:01:06;;;;;;;6.03;4.13;;;2.20;99.90;;;;;;5060149;28;20444;-87
2022/01/12 00:03:34;;;;;;;8.23;4.50;;;2.20;99.90;;;;;;5077422;28;20442;-87
2022/01/12 00:06:03;;;;;;;9.57;4.90;;;2.10;99.90;;;;;;5088943;23;20267;-82
2022/01/12 00:08:31;;;;;;;6.93;3.88;;;2.10;99.90;;;;;;5060538;28;20440;-81
2022/01/12 00:10:58;;;;;;;6.23;4.03;;;2.10;99.90;;;;;;5060768;28;20209;-81
2022/01/12 00:13:25;;;;;;;6.85;4.45;;;2.10;99.90;;;;;;5062438;28;20479;-81
2022/01/12 00:15:52;;;;;;;8.18;4.13;;;2.00;99.90;;;;;;5063704;28;20213;-82
2022/01/12 00:18:20;;;;;;;6.73;4.67;;;1.90;99.90;;;;;;5056495;28;20197;-83
2022/01/12 00:20:47;;;;;;;6.23;3.77;;;1.90;99.90;;;;;;5051842;28;20441;-82
2022/01/12 00:23:16;;;;;;;7.95;4.78;;;1.90;99.90;;;;;;5055518;28;20447;-83
2022/01/12 00:25:58;;;;;;;7.10;4.30;;;1.90;99.90;;;;;;5056763;28;20221;-84
2022/01/12 00:34:10;;;;;;;7.40;3.90;;;2.20;99.90;;;;;;5013241;28;20481;-83
2022/01/12 00:36:38;;;;;;;8.13;4.00;;;2.30;99.90;;;;;;5013558;28;20509;-83
2022/01/12 00:39:08;;;;;;;6.03;3.90;;;2.40;99.90;;;;;;5031613;28;20204;-83
2022/01/12 00:41:37;;;;;;;5.93;3.80;;;2.50;99.90;;;;;;5061533;28;20466;-83
2022/01/12 00:44:07;;;;;;;8.83;3.70;;;2.60;99.90;;;;;;5076608;28;20443;-82
2022/01/12 00:46:34;;;;;;;6.07;3.93;;;2.60;99.90;;;;;;5053624;28;20832;-83
2022/01/12 00:49:01;;;;;;;6.23;3.37;;;2.70;99.90;;;;;;5040620;28;20449;-83
2022/01/12 00:51:32;;;;;;;6.60;3.53;;;2.70;99.90;;;;;;5040166;28;20535;-83
2022/01/12 00:54:00;;;;;;;7.30;3.60;;;2.80;99.90;;;;;;5043090;28;20481;-84
2022/01/12 00:56:29;;;;;;;4.00;2.70;;;2.80;99.90;;;;;;5044066;28;20471;-84
2022/01/12 00:58:55;;;;;;;4.73;3.07;;;2.90;99.90;;;;;;5042330;28;20455;-84
2022/01/12 01:01:23;;;;;;;4.77;3.17;;;2.90;99.90;;;;;;5042659;28;20448;-83
2022/01/12 01:03:51;;;;;;;6.50;3.40;;;3.00;99.90;;;;;;5041896;28;20837;-85
2022/01/12 01:06:18;;;;;;;5.10;3.20;;;3.00;99.90;;;;;;5042633;28;20605;-84
2022/01/12 01:08:48;;;;;;;8.40;3.27;;;3.00;99.90;;;;;;5042928;28;20956;-84
2022/01/12 01:11:15;;;;;;;7.50;3.00;;;2.90;99.90;;;;;;5055919;28;20527;-84
2022/01/12 01:13:54;;;;;;;6.37;3.10;;;3.00;99.90;;;;;;5045326;28;20482;-84
2022/01/12 01:16:26;;;;;;;5.07;3.40;;;3.00;99.90;;;;;;5042221;28;20480;-83
2022/01/12 01:27:06;;;;;;;6.60;3.70;;;3.30;99.90;;;;;;5060141;28;20515;-84
2022/01/12 01:29:34;;;;;;;11.73;3.70;;;3.40;99.90;;;;;;5041456;28;21085;-84
2022/01/12 01:32:01;;;;;;;6.33;3.90;;;3.40;99.90;;;;;;5042357;28;20784;-84
2022/01/12 01:34:28;;;;;;;5.23;3.50;;;3.30;99.90;;;;;;5041682;28;20488;-83
2022/01/12 01:36:56;;;;;;;4.30;2.90;;;3.40;99.90;;;;;;5041796;28;20469;-84
2022/01/12 01:39:25;;;;;;;5.40;3.00;;;3.40;99.90;;;;;;5042084;28;20464;-84
2022/01/12 01:41:57;;;;;;;9.10;3.70;;;3.50;99.90;;;;;;5042377;28;20559;-82
2022/01/12 01:55:24;;;;;;;3.40;2.53;;;3.80;99.90;;;;;;5054561;28;20574;-84
2022/01/12 01:57:51;;;;;;;5.40;2.70;;;3.80;99.90;;;;;;5057800;28;20460;-84
2022/01/12 02:00:20;;;;;;;8.50;3.00;;;3.80;99.90;;;;;;5041495;28;20552;-84
2022/01/12 02:02:48;;;;;;;7.00;3.27;;;3.80;99.90;;;;;;5046964;28;20455;-84
2022/01/12 02:05:15;;;;;;;5.70;3.00;;;3.80;99.90;;;;;;5059250;28;20554;-84
2022/01/12 02:07:42;;;;;;;5.13;2.30;;;3.80;99.90;;;;;;5041893;28;20459;-84
2022/01/12 02:10:10;;;;;;;7.20;2.83;;;3.80;99.90;;;;;;5041332;28;20456;-83
2022/01/12 02:12:37;;;;;;;3.80;2.20;;;3.90;99.90;;;;;;5052791;28;20445;-83
2022/01/12 02:15:12;;;;;;;4.47;2.33;;;3.90;99.90;;;;;;5059710;28;21001;-82
2022/01/12 02:17:52;;;;;;;6.80;2.60;;;3.90;99.90;;;;;;5048973;28;20820;-83
2022/01/12 02:35:09;;;;;;;6.30;2.60;;;4.00;99.90;;;;;;5041238;28;20485;-84
2022/01/12 02:37:14;;;;;;;5.37;3.00;;;3.60;99.90;;;;;;5038778;28;20797;-84
2022/01/12 02:39:53;;;;;;;8.10;3.40;;;3.50;99.90;;;;;;5042101;28;20468;-83
2022/01/12 02:42:20;;;;;;;4.10;2.90;;;3.50;99.90;;;;;;5056458;28;20448;-83
2022/01/12 02:55:47;;;;;;;7.27;3.07;;;3.60;99.90;;;;;;5047331;28;20482;-84
2022/01/12 02:58:14;;;;;;;5.63;2.87;;;3.60;99.90;;;;;;5057568;28;20448;-84
2022/01/12 03:01:01;;;;;;;4.20;2.80;;;3.70;99.90;;;;;;5048507;28;20480;-84
2022/01/12 03:03:32;;;;;;;6.20;3.27;;;3.70;99.90;;;;;;5057009;28;20795;-84
2022/01/12 03:06:01;;;;;;;5.00;2.50;;;3.70;99.90;;;;;;5045278;28;20511;-83
2022/01/12 03:08:29;;;;;;;8.50;2.97;;;3.80;99.90;;;;;;5037181;28;20485;-83
2022/01/12 03:10:57;;;;;;;4.40;2.73;;;3.90;99.90;;;;;;5047406;28;20996;-84
2022/01/12 03:13:24;;;;;;;4.27;2.83;;;3.90;99.90;;;;;;5055608;28;20436;-83
2022/01/12 03:15:51;;;;;;;4.90;3.30;;;3.80;99.90;;;;;;5050836;28;20501;-83
2022/01/12 03:18:18;;;;;;;4.20;2.90;;;3.80;99.90;;;;;;5036475;28;20933;-83
2022/01/12 03:20:45;;;;;;;3.90;2.00;;;3.80;99.90;;;;;;5036928;28;20453;-82
2022/01/12 03:23:14;;;;;;;3.80;2.57;;;3.90;99.90;;;;;;5036244;28;20456;-83
2022/01/12 03:25:41;;;;;;;5.37;2.47;;;3.90;99.90;;;;;;5044376;28;20523;-82
2022/01/12 03:28:10;;;;;;;7.50;4.17;;;3.90;99.90;;;;;;5036791;28;20540;-84
2022/01/12 03:30:46;;;;;;;5.47;2.80;;;4.00;99.90;;;;;;5038662;28;20561;-83
2022/01/12 03:33:29;;;;;;;5.97;2.70;;;4.00;99.90;;;;;;5055939;28;20450;-83
2022/01/12 03:36:22;;;;;;;6.67;2.73;;;4.00;99.90;;;;;;5053625;28;20549;-83
2022/01/12 03:38:49;;;;;;;5.67;3.13;;;4.10;99.90;;;;;;5036833;28;20522;-83
2022/01/12 03:41:16;;;;;;;10.30;3.30;;;4.10;99.90;;;;;;5036504;28;20495;-82
2022/01/12 03:43:45;;;;;;;7.80;3.30;;;4.10;99.90;;;;;;5037646;28;20511;-83
2022/01/12 03:46:12;;;;;;;4.73;2.87;;;4.10;99.90;;;;;;5046417;28;20507;-83
2022/01/12 03:48:39;;;;;;;6.47;3.80;;;4.20;99.90;;;;;;5058308;28;20452;-82
2022/01/12 03:51:06;;;;;;;5.40;3.60;;;4.30;99.90;;;;;;5055864;28;20513;-83
2022/01/12 03:53:33;;;;;;;5.13;3.10;;;4.10;99.90;;;;;;5054929;28;20815;-83
2022/01/12 03:56:00;;;;;;;5.53;3.13;;;4.20;99.90;;;;;;5042777;28;20487;-82
2022/01/12 03:58:26;;;;;;;5.30;3.43;;;4.30;99.90;;;;;;5055066;28;20488;-83
2022/01/12 04:00:55;;;;;;;5.80;3.60;;;4.30;99.90;;;;;;5038139;28;20453;-83
2022/01/12 04:03:21;;;;;;;6.03;3.27;;;4.40;99.90;;;;;;5054480;28;20879;-83
2022/01/12 04:08:32;;;;;;;7.57;3.90;;;4.40;99.90;;;;;;5045436;28;20440;-82
2022/01/12 04:11:01;;;;;;;4.97;2.97;;;4.40;99.90;;;;;;5055317;28;20977;-83
2022/01/12 04:13:29;;;;;;;5.03;3.20;;;4.30;99.90;;;;;;5054898;28;20439;-83
2022/01/12 04:16:02;;;;;;;6.50;3.10;;;4.30;99.90;;;;;;5048920;28;20476;-84
2022/01/12 04:18:29;;;;;;;5.93;3.27;;;4.30;99.90;;;;;;5055316;28;20857;-83
2022/01/12 04:20:58;;;;;;;8.13;3.87;;;4.40;99.90;;;;;;5054620;28;20448;-83
2022/01/12 04:23:25;;;;;;;6.20;3.30;;;4.30;99.90;;;;;;5054102;28;20453;-83
2022/01/12 04:25:54;;;;;;;5.70;4.03;;;4.30;99.90;;;;;;5034604;28;20469;-83
2022/01/12 04:28:23;;;;;;;5.07;3.10;;;4.30;99.90;;;;;;5035346;28;20441;-84
2022/01/12 04:30:51;;;;;;;9.17;3.80;;;4.30;99.90;;;;;;5034885;28;20453;-84
2022/01/12 04:33:20;;;;;;;5.50;3.73;;;4.30;99.90;;;;;;5034573;28;20453;-83
2022/01/12 04:35:50;;;;;;;6.77;3.97;;;4.30;99.90;;;;;;5034651;28;20495;-84
2022/01/12 04:38:19;;;;;;;8.13;3.53;;;4.40;99.90;;;;;;5036815;28;20843;-84
2022/01/12 04:40:47;;;;;;;6.43;3.70;;;4.30;99.90;;;;;;5037081;28;20459;-84
2022/01/12 04:43:15;;;;;;;4.93;3.20;;;4.40;99.90;;;;;;5054546;28;20453;-84
2022/01/12 04:45:58;;;;;;;58.00;28.30;;;4.40;99.90;;;;;;5054426;28;20501;-84
2022/01/12 04:48:37;;;;;;;21.60;11.00;;;4.40;99.90;;;;;;5034673;28;20563;-83
2022/01/12 04:51:04;;;;;;;9.97;5.33;;;4.40;99.90;;;;;;5044305;28;20815;-83
2022/01/12 04:53:31;;;;;;;6.00;3.93;;;4.50;99.90;;;;;;5048290;28;20464;-82
2022/01/12 04:55:59;;;;;;;8.33;4.10;;;4.40;99.90;;;;;;5053964;28;20924;-83
2022/01/12 04:58:27;;;;;;;9.03;4.40;;;4.40;99.90;;;;;;5045958;28;20456;-83
2022/01/12 05:00:58;;;;;;;6.30;4.33;;;4.40;99.90;;;;;;5046612;28;20444;-83
2022/01/12 05:06:36;;;;;;;6.73;3.87;;;4.50;99.90;;;;;;5049164;28;20483;-82
2022/01/12 05:09:12;;;;;;;6.20;3.83;;;4.50;99.90;;;;;;5047539;28;20513;-83
2022/01/12 05:14:24;;;;;;;6.23;4.10;;;4.50;99.90;;;;;;5035485;28;20475;-83
2022/01/12 05:16:52;;;;;;;6.33;3.90;;;4.50;99.90;;;;;;5045241;28;20470;-82
2022/01/12 05:19:20;;;;;;;7.50;5.00;;;4.50;99.90;;;;;;5054034;28;20429;-83
2022/01/12 05:21:47;;;;;;;7.00;4.10;;;4.50;99.90;;;;;;5041523;28;20461;-83
2022/01/12 05:24:13;;;;;;;7.77;3.80;;;4.50;99.90;;;;;;5051345;28;20458;-83
2022/01/12 05:26:41;;;;;;;7.20;4.70;;;4.50;99.90;;;;;;5034622;28;20481;-82
2022/01/12 05:29:07;;;;;;;7.33;4.60;;;4.50;99.90;;;;;;5047561;28;20451;-83
2022/01/12 05:31:34;;;;;;;8.27;4.00;;;4.50;99.90;;;;;;5053272;28;20444;-83
2022/01/12 05:34:02;;;;;;;8.30;4.20;;;4.60;99.90;;;;;;5053746;28;21053;-83
2022/01/12 05:36:32;;;;;;;6.00;4.00;;;4.60;99.90;;;;;;5041644;28;20983;-83
2022/01/12 05:38:59;;;;;;;6.57;4.20;;;4.60;99.90;;;;;;5054214;28;20459;-82
2022/01/12 05:41:26;;;;;;;6.23;3.87;;;4.60;99.90;;;;;;5056833;28;20470;-83
2022/01/12 05:43:53;;;;;;;7.20;4.43;;;4.60;99.90;;;;;;5053370;28;20454;-83
2022/01/12 05:46:24;;;;;;;10.53;4.93;;;4.60;99.90;;;;;;5052488;28;20518;-84
2022/01/12 05:51:37;;;;;;;6.40;3.90;;;4.60;99.90;;;;;;5057270;28;20399;-85
2022/01/12 05:54:04;;;;;;;6.73;4.93;;;4.60;99.90;;;;;;5039704;28;20458;-83
2022/01/12 05:56:31;;;;;;;8.20;4.60;;;4.60;99.90;;;;;;5036889;28;21174;-85
2022/01/12 05:58:58;;;;;;;8.67;5.20;;;4.60;99.90;;;;;;5051847;28;20443;-84
2022/01/12 06:01:25;;;;;;;6.70;5.20;;;4.70;99.90;;;;;;5054457;28;20461;-85
2022/01/12 06:03:52;;;;;;;7.97;5.30;;;4.60;99.90;;;;;;5055254;28;20453;-82
2022/01/12 06:06:19;;;;;;;8.97;6.00;;;4.50;99.90;;;;;;5048768;28;20535;-86
2022/01/12 06:08:47;;;;;;;8.03;5.30;;;4.60;99.90;;;;;;5035384;28;20941;-86
2022/01/12 06:11:14;;;;;;;11.13;5.77;;;4.60;99.90;;;;;;5041594;28;20456;-85
2022/01/12 06:13:40;;;;;;;10.23;6.00;;;4.60;99.90;;;;;;5054997;28;20467;-84
2022/01/12 06:16:07;;;;;;;10.30;5.70;;;4.50;99.90;;;;;;5053656;28;20507;-84
2022/01/12 06:18:34;;;;;;;10.80;6.00;;;4.60;99.90;;;;;;5036839;28;20457;-80
2022/01/12 06:21:01;;;;;;;7.43;5.40;;;4.60;99.90;;;;;;5048125;28;20460;-81
2022/01/12 06:23:28;;;;;;;8.50;5.07;;;4.60;99.90;;;;;;5066658;28;20510;-79
2022/01/12 06:25:56;;;;;;;14.23;6.93;;;4.70;99.90;;;;;;5049501;28;20489;-83
2022/01/12 06:28:36;;;;;;;8.67;5.30;;;4.60;99.90;;;;;;5036119;28;20862;-82
2022/01/12 06:31:11;;;;;;;9.20;5.77;;;4.50;99.90;;;;;;5048331;28;20475;-82
2022/01/12 06:33:38;;;;;;;9.53;6.63;;;4.50;99.90;;;;;;5054177;28;21049;-83
2022/01/12 06:36:06;;;;;;;8.70;5.23;;;4.60;99.90;;;;;;5055874;28;20487;-83
2022/01/12 06:38:32;;;;;;;15.63;6.50;;;4.60;99.90;;;;;;5056166;28;20482;-81
2022/01/12 06:41:01;;;;;;;9.23;6.37;;;4.60;99.90;;;;;;5056259;28;20462;-82
2022/01/12 06:43:28;;;;;;;7.93;5.33;;;4.60;99.90;;;;;;5055467;28;20443;-83
2022/01/12 06:45:55;;;;;;;9.37;5.30;;;4.70;99.90;;;;;;5055206;28;20929;-82
2022/01/12 06:48:22;;;;;;;10.33;5.80;;;4.70;99.90;;;;;;5056254;28;20826;-83
2022/01/12 06:50:49;;;;;;;10.37;5.80;;;4.60;99.90;;;;;;5052082;28;20468;-83
2022/01/12 06:53:16;;;;;;;10.07;6.80;;;4.60;99.90;;;;;;5036006;28;20844;-82
2022/01/12 06:55:43;;;;;;;10.77;7.30;;;4.70;99.90;;;;;;5036560;28;20486;-83
2022/01/12 06:58:11;;;;;;;14.10;7.50;;;4.80;99.90;;;;;;5036421;28;20484;-83
2022/01/12 07:00:39;;;;;;;12.10;6.97;;;4.80;99.90;;;;;;5036099;28;20448;-83
2022/01/12 07:03:06;;;;;;;10.27;6.60;;;4.80;99.90;;;;;;5037771;28;20511;-83
2022/01/12 07:05:33;;;;;;;9.03;6.80;;;4.80;99.90;;;;;;5039701;28;20475;-82
2022/01/12 07:08:00;;;;;;;11.60;8.10;;;4.80;99.90;;;;;;5037365;28;20458;-83
2022/01/12 07:10:27;;;;;;;8.93;5.60;;;4.80;99.90;;;;;;5054093;28;20817;-81
2022/01/12 07:12:54;;;;;;;8.93;5.97;;;4.80;99.90;;;;;;5055514;28;20854;-81
2022/01/12 07:15:22;;;;;;;8.77;5.70;;;4.80;99.90;;;;;;5055318;28;20480;-82
2022/01/12 07:17:49;;;;;;;12.57;6.63;;;4.90;99.90;;;;;;5059063;28;20519;-82
2022/01/12 07:20:17;;;;;;;12.97;6.73;;;4.90;99.90;;;;;;5058988;28;20448;-80
2022/01/12 07:22:44;;;;;;;9.20;5.73;;;4.90;99.90;;;;;;5058991;28;20483;-82
2022/01/12 07:25:11;;;;;;;11.20;7.13;;;4.90;99.90;;;;;;5047381;28;20500;-82
2022/01/12 07:27:39;;;;;;;11.00;5.33;;;5.00;99.90;;;;;;5040798;28;20458;-81
2022/01/12 07:30:08;;;;;;;9.13;5.67;;;5.00;99.90;;;;;;5050218;28;20449;-81
2022/01/12 07:32:38;;;;;;;8.90;5.93;;;5.00;99.90;;;;;;5052699;28;20922;-82
2022/01/12 07:35:06;;;;;;;8.90;6.70;;;5.00;99.90;;;;;;5052377;28;20621;-81
2022/01/12 07:37:33;;;;;;;9.60;5.67;;;5.00;99.90;;;;;;5054748;28;20441;-82
2022/01/12 07:40:00;;;;;;;10.43;7.30;;;5.00;99.90;;;;;;5058399;28;20870;-81
2022/01/12 07:42:27;;;;;;;17.27;7.87;;;4.90;99.90;;;;;;5054633;28;20446;-81
2022/01/12 07:44:59;;;;;;;10.17;6.60;;;5.00;99.90;;;;;;5051849;28;20450;-81
2022/01/12 07:47:26;;;;;;;14.00;7.13;;;5.00;99.90;;;;;;5055136;28;20825;-83
2022/01/12 07:49:55;;;;;;;10.03;7.67;;;5.00;99.90;;;;;;5057822;28;20442;-81
2022/01/12 07:52:23;;;;;;;10.33;7.00;;;5.00;99.90;;;;;;5057525;28;20456;-82
2022/01/12 07:54:50;;;;;;;9.47;7.10;;;4.90;99.90;;;;;;5044052;28;20446;-82
2022/01/12 07:57:17;;;;;;;10.70;7.40;;;5.00;99.90;;;;;;5056838;28;20840;-81
2022/01/12 07:59:44;;;;;;;11.80;7.70;;;4.90;99.90;;;;;;5056095;28;20551;-81
2022/01/12 08:02:12;;;;;;;9.63;6.23;;;5.00;99.90;;;;;;5052814;28;20541;-82
2022/01/12 08:04:39;;;;;;;16.00;7.43;;;5.00;99.90;;;;;;5069296;28;20424;-82
2022/01/12 08:07:10;;;;;;;14.27;8.17;;;4.90;99.90;;;;;;5070108;28;20456;-83
2022/01/12 08:09:37;;;;;;;14.43;9.20;;;4.90;99.90;;;;;;5071090;28;20440;-83
2022/01/12 08:12:05;;;;;;;9.70;7.73;;;4.90;99.90;;;;;;5052010;28;20531;-82
2022/01/12 08:14:31;;;;;;;13.60;8.13;;;4.90;99.90;;;;;;5046351;28;20453;-82
2022/01/12 08:16:58;;;;;;;14.03;8.50;;;4.90;99.90;;;;;;5061701;28;20492;-82
2022/01/12 08:19:26;;;;;;;15.03;10.43;;;4.90;99.90;;;;;;5050028;28;20455;-83
2022/01/12 08:21:53;;;;;;;22.93;10.07;;;4.70;99.90;;;;;;5048181;28;20492;-82
2022/01/12 08:24:22;;;;;;;20.17;11.10;;;4.70;99.90;;;;;;5055963;28;20540;-83
2022/01/12 08:26:49;;;;;;;15.90;10.07;;;4.60;99.90;;;;;;5049513;28;20540;-82
2022/01/12 08:29:17;;;;;;;22.80;12.00;;;4.60;99.90;;;;;;5065474;28;20537;-79
2022/01/12 08:31:45;;;;;;;20.73;11.37;;;4.60;99.90;;;;;;5060572;28;20454;-79
2022/01/12 08:34:13;;;;;;;19.30;11.00;;;4.60;99.90;;;;;;5051526;28;20540;-80
2022/01/12 08:36:41;;;;;;;23.20;11.43;;;4.70;99.90;;;;;;5062090;28;20895;-81
2022/01/12 08:39:08;;;;;;;16.20;11.10;;;4.80;99.90;;;;;;5054234;28;20454;-82
2022/01/12 08:41:37;;;;;;;14.60;10.30;;;4.80;99.90;;;;;;5040532;28;20454;-81
2022/01/12 08:44:05;;;;;;;21.90;11.93;;;4.90;99.90;;;;;;5058962;28;20869;-82
2022/01/12 08:46:32;;;;;;;16.13;9.70;;;4.90;99.90;;;;;;5068760;28;20555;-84
2022/01/12 08:48:59;;;;;;;12.90;8.83;;;4.90;99.90;;;;;;5054530;28;21023;-83
2022/01/12 08:51:26;;;;;;;16.17;10.00;;;5.00;99.90;;;;;;5067470;28;20523;-84
2022/01/12 08:53:53;;;;;;;14.77;9.37;;;5.10;99.90;;;;;;5072664;28;20444;-81
2022/01/12 08:56:20;;;;;;;13.97;9.63;;;5.10;99.90;;;;;;5068199;28;21023;-83
2022/01/12 08:58:51;;;;;;;16.90;10.73;;;5.20;99.90;;;;;;5074122;28;20437;-82
2022/01/12 09:01:18;;;;;;;14.23;8.80;;;5.20;99.90;;;;;;5068154;28;20444;-83
2022/01/12 09:03:45;;;;;;;17.20;10.27;;;5.20;99.90;;;;;;5045798;28;20924;-83
2022/01/12 09:06:13;;;;;;;20.83;11.23;;;5.20;99.90;;;;;;5059314;28;20536;-83
2022/01/12 09:08:42;;;;;;;17.63;11.07;;;5.30;99.90;;;;;;5066191;28;20458;-81
2022/01/12 09:11:09;;;;;;;21.00;12.33;;;5.20;99.90;;;;;;5059368;28;20452;-81
2022/01/12 09:13:36;;;;;;;17.83;11.33;;;5.20;99.90;;;;;;5054532;28;20461;-82
2022/01/12 09:16:06;;;;;;;17.00;10.90;;;5.20;99.90;;;;;;5072507;28;20480;-81
2022/01/12 09:18:34;;;;;;;17.67;11.33;;;5.20;99.90;;;;;;5056056;28;20440;-81
2022/01/12 09:21:01;;;;;;;19.30;11.37;;;5.20;99.90;;;;;;5062066;28;20453;-80
2022/01/12 09:23:28;;;;;;;15.33;9.90;;;5.20;99.90;;;;;;5052126;28;20671;-79
2022/01/12 09:25:55;;;;;;;17.23;10.30;;;5.30;99.90;;;;;;5059748;28;20494;-80
2022/01/12 09:28:21;;;;;;;20.53;10.17;;;5.20;99.90;;;;;;5052044;28;20453;-80
2022/01/12 09:30:48;;;;;;;15.97;10.03;;;5.20;99.90;;;;;;5053470;28;20790;-81
2022/01/12 09:33:17;;;;;;;14.53;9.00;;;5.30;99.90;;;;;;5054469;28;20447;-81
2022/01/12 09:35:46;;;;;;;18.60;10.60;;;5.40;99.90;;;;;;5052156;28;20549;-79
2022/01/12 09:38:13;;;;;;;16.70;11.20;;;5.40;99.90;;;;;;5054208;28;20466;-81
2022/01/12 09:40:40;;;;;;;20.97;11.37;;;5.30;99.90;;;;;;5056727;28;20464;-79
2022/01/12 09:43:07;;;;;;;20.60;12.23;;;5.30;99.90;;;;;;5060437;28;20481;-81
2022/01/12 09:45:34;;;;;;;19.70;12.53;;;5.20;99.90;;;;;;5057777;28;20471;-81
2022/01/12 09:48:01;;;;;;;22.97;11.97;;;5.30;99.90;;;;;;5054048;28;20492;-83
2022/01/12 09:50:30;;;;;;;20.63;11.03;;;5.40;99.90;;;;;;5050807;28;20445;-81
2022/01/12 09:52:56;;;;;;;21.67;13.17;;;5.40;99.90;;;;;;5065072;28;20450;-80
2022/01/12 09:55:23;;;;;;;19.47;11.87;;;5.40;99.90;;;;;;5053843;28;20471;-80
2022/01/12 09:57:51;;;;;;;22.03;12.00;;;5.50;99.90;;;;;;5056230;28;20826;-80
2022/01/12 10:00:24;;;;;;;23.93;14.70;;;5.60;99.90;;;;;;5043805;28;20521;-80
2022/01/12 10:02:51;;;;;;;25.90;14.33;;;5.50;99.90;;;;;;5064434;28;20561;-80
2022/01/12 10:05:18;;;;;;;23.70;14.47;;;5.50;99.90;;;;;;5049187;28;20482;-81
2022/01/12 10:07:46;;;;;;;23.23;14.27;;;5.70;99.90;;;;;;5051354;28;20458;-81
2022/01/12 10:10:15;;;;;;;33.83;18.03;;;5.80;99.90;;;;;;5046463;28;20451;-82
2022/01/12 10:12:54;;;;;;;25.30;14.73;;;5.90;99.90;;;;;;5049484;28;20519;-82
2022/01/12 10:15:20;;;;;;;23.97;14.83;;;5.90;99.90;;;;;;5048703;28;20475;-81
2022/01/12 10:17:48;;;;;;;25.47;14.60;;;5.80;99.90;;;;;;5046116;28;20513;-81
2022/01/12 10:20:18;;;;;;;20.07;13.80;;;5.90;99.90;;;;;;5051524;28;20995;-81
2022/01/12 10:23:05;;;;;;;28.27;13.60;;;5.90;99.90;;;;;;5040404;28;21649;-81
2022/01/12 10:25:32;;;;;;;26.63;14.20;;;5.80;99.90;;;;;;5034792;28;20970;-82
2022/01/12 10:28:10;;;;;;;24.50;15.77;;;5.70;99.90;;;;;;5052180;28;20486;-82
2022/01/12 10:30:38;;;;;;;28.90;16.73;;;5.70;99.90;;;;;;5039559;28;20900;-80
2022/01/12 10:33:06;;;;;;;25.40;15.00;;;5.70;99.90;;;;;;5054088;28;20454;-80
2022/01/12 10:35:35;;;;;;;26.63;15.27;;;5.80;99.90;;;;;;5055227;28;20483;-82
2022/01/12 10:38:09;;;;;;;26.97;14.40;;;5.70;99.90;;;;;;5063060;28;21156;-80
2022/01/12 10:40:49;;;;;;;25.90;14.60;;;5.70;99.90;;;;;;5057814;28;20522;-80
2022/01/12 10:43:30;;;;;;;33.77;17.03;;;5.90;99.90;;;;;;5044547;28;20454;-79
2022/01/12 10:45:57;;;;;;;34.37;17.53;;;5.90;99.90;;;;;;5060157;28;20847;-82
2022/01/12 10:48:25;;;;;;;29.00;15.63;;;5.80;99.90;;;;;;5055009;28;21209;-81
2022/01/12 10:50:55;;;;;;;30.20;14.90;;;5.70;99.90;;;;;;5053261;28;20444;-82
2022/01/12 10:53:33;;;;;;;34.00;16.87;;;5.80;99.90;;;;;;5050505;28;20461;-83
2022/01/12 10:56:05;;;;;;;36.10;15.53;;;5.80;99.90;;;;;;5043172;28;20975;-82
2022/01/12 10:58:32;;;;;;;26.63;15.57;;;5.80;99.90;;;;;;5048084;28;20449;-83
2022/01/12 11:00:59;;;;;;;32.70;16.30;;;5.80;99.90;;;;;;5050409;28;20498;-82
2022/01/12 11:03:26;;;;;;;34.43;15.67;;;5.80;99.90;;;;;;5060773;28;20460;-83
2022/01/12 11:05:56;;;;;;;38.47;17.50;;;5.70;99.90;;;;;;5057899;28;20484;-82
2022/01/12 11:08:25;;;;;;;29.50;15.13;;;5.60;99.90;;;;;;5043075;28;20460;-83
2022/01/12 11:10:55;;;;;;;45.53;17.60;;;5.70;99.90;;;;;;5053821;28;20472;-79
2022/01/12 11:13:22;;;;;;;37.87;18.83;;;5.60;99.90;;;;;;5054461;28;20467;-82
2022/01/12 11:15:49;;;;;;;36.97;17.80;;;5.70;99.90;;;;;;5043395;28;20483;-81
2022/01/12 11:18:20;;;;;;;40.60;20.17;;;5.60;99.90;;;;;;5052044;28;20513;-82
2022/01/12 11:20:48;;;;;;;42.80;20.20;;;5.70;99.90;;;;;;5049162;28;20431;-82
2022/01/12 11:23:16;;;;;;;37.70;19.33;;;5.70;99.90;;;;;;5053913;28;20457;-84
2022/01/12 11:25:45;;;;;;;39.30;17.90;;;5.70;99.90;;;;;;5049182;28;20479;-83
2022/01/12 11:28:19;;;;;;;38.27;18.50;;;5.80;99.90;;;;;;5052782;28;21114;-78
2022/01/12 11:30:59;;;;;;;39.67;18.90;;;5.80;99.90;;;;;;5043309;28;20447;-79
2022/01/12 11:33:37;;;;;;;32.30;17.97;;;5.80;99.90;;;;;;5053272;28;20460;-81
2022/01/12 11:36:12;;;;;;;34.77;17.10;;;6.00;99.90;;;;;;5042783;28;20511;-81
2022/01/12 11:38:39;;;;;;;37.27;18.00;;;6.00;99.90;;;;;;5054707;28;20486;-80
2022/01/12 11:41:11;;;;;;;34.00;17.30;;;6.10;99.90;;;;;;5070431;28;20456;-80
2022/01/12 11:43:45;;;;;;;35.83;16.40;;;6.20;99.90;;;;;;5052279;28;20479;-79
2022/01/12 11:46:15;;;;;;;40.67;18.67;;;6.30;99.90;;;;;;5040810;28;20983;-81
2022/01/12 11:48:45;;;;;;;42.60;18.37;;;6.30;99.90;;;;;;5049127;28;20504;-80
2022/01/12 11:51:13;;;;;;;44.20;19.10;;;6.30;99.90;;;;;;5048138;28;20460;-81
2022/01/12 11:53:52;;;;;;;40.53;19.97;;;6.30;99.90;;;;;;5058399;28;20489;-79
2022/01/12 11:56:21;;;;;;;54.30;23.03;;;6.20;99.90;;;;;;5070185;28;20924;-81
2022/01/12 11:58:55;;;;;;;44.50;19.97;;;6.00;99.90;;;;;;5064437;28;20475;-81
2022/01/12 12:01:23;;;;;;;51.37;23.20;;;5.90;99.90;;;;;;5064090;28;20547;-81
2022/01/12 12:03:57;;;;;;;45.30;20.83;;;5.90;99.90;;;;;;5071665;28;20448;-81
2022/01/12 12:06:24;;;;;;;49.90;28.27;;;5.90;99.90;;;;;;5064482;28;20480;-82
2022/01/12 12:08:59;;;;;;;50.63;21.33;;;5.80;99.90;;;;;;5073683;28;20462;-81
2022/01/12 12:11:28;;;;;;;42.77;21.10;;;5.90;99.90;;;;;;5049083;28;20483;-80
2022/01/12 12:14:00;;;;;;;47.87;22.10;;;5.80;99.90;;;;;;5043220;28;20456;-81
2022/01/12 12:16:28;;;;;;;54.93;23.37;;;5.90;99.90;;;;;;5059291;28;20500;-81
2022/01/12 12:18:56;;;;;;;63.23;25.23;;;5.90;99.90;;;;;;5060657;28;20478;-82
2022/01/12 12:21:23;;;;;;;56.07;23.17;;;5.90;99.90;;;;;;5051709;28;20447;-82
2022/01/12 12:23:50;;;;;;;49.00;24.07;;;6.00;99.90;;;;;;5054572;28;20456;-83
2022/01/12 12:26:20;;;;;;;49.83;23.87;;;6.20;99.90;;;;;;5056200;28;20464;-83
2022/01/12 12:28:56;;;;;;;57.23;22.90;;;6.10;99.90;;;;;;5052076;28;20451;-81
2022/01/12 12:31:25;;;;;;;51.80;22.97;;;6.10;99.90;;;;;;5058268;28;20449;-81
2022/01/12 12:34:02;;;;;;;46.20;24.20;;;6.10;99.90;;;;;;5059828;28;20553;-82
2022/01/12 12:36:29;;;;;;;63.23;25.90;;;6.00;99.90;;;;;;5061827;28;20453;-81
2022/01/12 12:39:06;;;;;;;59.70;24.80;;;6.00;99.90;;;;;;5052385;28;20531;-79
2022/01/12 12:41:41;;;;;;;63.37;26.87;;;6.00;99.90;;;;;;5044255;28;20536;-81
2022/01/12 12:44:21;;;;;;;59.43;24.80;;;5.90;99.90;;;;;;5043939;28;20473;-81
2022/01/12 12:46:48;;;;;;;63.27;27.53;;;5.90;99.90;;;;;;5056905;28;20460;-83
2022/01/12 12:49:15;;;;;;;49.23;23.93;;;5.90;99.90;;;;;;5062519;28;20454;-82
2022/01/12 12:51:48;;;;;;;57.03;28.27;;;5.80;99.90;;;;;;5058763;28;20438;-82
2022/01/12 12:54:15;;;;;;;59.80;26.63;;;5.60;99.90;;;;;;5055941;28;20461;-83
2022/01/12 12:56:48;;;;;;;58.50;26.97;;;5.80;99.90;;;;;;5063184;28;20477;-83
2022/01/12 12:59:16;;;;;;;56.73;26.30;;;5.80;99.90;;;;;;5068755;28;20481;-83
2022/01/12 13:01:43;;;;;;;62.23;27.90;;;5.70;99.90;;;;;;5061728;28;20445;-83
2022/01/12 13:04:11;;;;;;;60.73;26.53;;;5.80;99.90;;;;;;5053376;28;20445;-83
2022/01/12 13:06:38;;;;;;;59.57;26.33;;;5.70;99.90;;;;;;5063644;28;20474;-83
2022/01/12 13:09:08;;;;;;;61.83;28.40;;;5.90;99.90;;;;;;5051567;28;20456;-80
2022/01/12 13:11:37;;;;;;;58.10;27.63;;;5.80;99.90;;;;;;5050722;28;20500;-82
2022/01/12 13:14:06;;;;;;;64.67;31.17;;;6.00;99.90;;;;;;5062243;28;20448;-79
2022/01/12 13:16:34;;;;;;;52.03;24.47;;;6.00;99.90;;;;;;5041526;28;20470;-80
2022/01/12 13:19:07;;;;;;;56.10;26.70;;;6.00;99.90;;;;;;5051811;28;20463;-81
2022/01/12 13:21:35;;;;;;;40.53;23.60;;;6.00;99.90;;;;;;5051148;28;20502;-81
2022/01/12 13:24:03;;;;;;;43.30;22.70;;;6.10;99.90;;;;;;5054937;28;20804;-83
2022/01/12 13:26:36;;;;;;;40.60;20.60;;;6.20;99.90;;;;;;5066180;28;20535;-83
2022/01/12 13:29:08;;;;;;;41.57;20.67;;;6.20;99.90;;;;;;5065962;28;20446;-81
2022/01/12 13:31:36;;;;;;;40.60;21.27;;;6.20;99.90;;;;;;5061959;28;20489;-82
2022/01/12 13:34:06;;;;;;;55.87;25.07;;;6.20;99.90;;;;;;5066159;28;20451;-81
2022/01/12 13:36:34;;;;;;;47.03;24.27;;;5.90;99.90;;;;;;5070861;28;20473;-82
2022/01/12 13:39:08;;;;;;;47.40;24.03;;;5.90;99.90;;;;;;5068476;28;20528;-82
2022/01/12 13:41:37;;;;;;;49.40;24.00;;;5.80;99.90;;;;;;5066575;28;20464;-83
2022/01/12 13:44:08;;;;;;;46.30;24.00;;;5.90;99.90;;;;;;5057927;28;20481;-81
2022/01/12 13:46:39;;;;;;;40.27;21.80;;;6.00;99.90;;;;;;5066675;28;20509;-82
2022/01/12 13:49:21;;;;;;;27.00;15.10;;;6.00;99.90;;;;;;5062078;28;20469;-81
2022/01/12 13:51:59;;;;;;;19.03;11.27;;;5.90;99.90;;;;;;5046097;28;20463;-82
2022/01/12 13:54:30;;;;;;;24.10;13.20;;;6.00;99.90;;;;;;5045244;28;20445;-83
2022/01/12 13:56:59;;;;;;;24.93;14.30;;;5.90;99.90;;;;;;5060719;28;20925;-82
2022/01/12 13:59:28;;;;;;;29.53;14.57;;;5.90;99.90;;;;;;5060137;28;20464;-81